sensor_id;sensor_type;location;lat;lon;timestamp;temperature;humidity
1644;DHT22;46825;51.99869940;8.49421771;2023-05-18T00:00:47;7.00;99.90
1644;DHT22;46825;51.99869940;8.49421771;2023-05-18T00:01:48;7.00;99.90
1644;DHT22;46825;51.99869940;8.49421771;2023-05-18T00:02:49;7.00;99.90
1644;DHT22;46825;51.99869940;8.49421771;2023-05-18T00:03:49;7.00;99.90
1644;DHT22;46825;51.99869940;8.49421771;2023-05-18T00:04:53;7.00;99.90
1644;DHT22;46825;51.99869940;8.49421771;2023-05-18T00:05:53;6.90;99.90
1644;DHT22;46825;51.99869940;8.49421771;2023-05-18T00:06:57;6.90;99.90
1644;DHT22;46825;51.99869940;8.49421771;2023-05-18T00:07:57;6.90;99.90
1644;DHT22;46825;51.99869940;8.49421771;2023-05-18T00:08:58;6.90;99.90
1644;DHT22;46825;51.99869940;8.49421771;2023-05-18T00:09:59;6.90;99.90
1644;DHT22;46825;51.99869940;8.49421771;2023-05-18T00:11:01;6.90;99.90
1644;DHT22;46825;51.99869940;8.49421771;2023-05-18T00:12:03;6.90;99.90
1644;DHT22;46825;51.99869940;8.49421771;2023-05-18T00:13:04;6.90;99.90
1644;DHT22;46825;51.99869940;8.49421771;2023-05-18T00:14:07;6.90;99.90
1644;DHT22;46825;51.99869940;8.49421771;2023-05-18T00:15:08;6.90;99.90
1644;DHT22;46825;51.99869940;8.49421771;2023-05-18T00:16:09;5.80;99.90
1644;DHT22;46825;51.99869940;8.49421771;2023-05-18T00:17:11;6.90;99.90
1644;DHT22;46825;51.99869940;8.49421771;2023-05-18T00:18:14;6.90;99.90
1644;DHT22;46825;51.99869940;8.49421771;2023-05-18T00:19:14;6.80;99.90
1644;DHT22;46825;51.99869940;8.49421771;2023-05-18T00:20:15;6.80;99.90
1644;DHT22;46825;51.99869940;8.49421771;2023-05-18T00:21:17;6.80;99.90
1644;DHT22;46825;51.99869940;8.49421771;2023-05-18T00:22:18;6.80;99.90
1644;DHT22;46825;51.99869940;8.49421771;2023-05-18T00:23:19;8.20;99.90
1644;DHT22;46825;51.99869940;8.49421771;2023-05-18T00:24:19;6.90;99.90
1644;DHT22;46825;51.99869940;8.49421771;2023-05-18T00:25:20;6.80;99.90
1644;DHT22;46825;51.99869940;8.49421771;2023-05-18T00:26:20;6.80;99.90
1644;DHT22;46825;51.99869940;8.49421771;2023-05-18T00:27:21;6.80;99.90
1644;DHT22;46825;51.99869940;8.49421771;2023-05-18T00:28:21;6.80;99.90
1644;DHT22;46825;51.99869940;8.49421771;2023-05-18T00:29:22;6.80;99.90
1644;DHT22;46825;51.99869940;8.49421771;2023-05-18T00:30:23;5.40;99.90
1644;DHT22;46825;51.99869940;8.49421771;2023-05-18T00:31:24;6.70;99.90
1644;DHT22;46825;51.99869940;8.49421771;2023-05-18T00:32:25;7.10;99.90
1644;DHT22;46825;51.99869940;8.49421771;2023-05-18T00:33:26;6.70;99.90
1644;DHT22;46825;51.99869940;8.49421771;2023-05-18T00:34:26;6.70;99.90
1644;DHT22;46825;51.99869940;8.49421771;2023-05-18T00:35:27;6.70;99.90
1644;DHT22;46825;51.99869940;8.49421771;2023-05-18T00:36:29;6.70;99.90
1644;DHT22;46825;51.99869940;8.49421771;2023-05-18T00:37:30;6.70;99.90
1644;DHT22;46825;51.99869940;8.49421771;2023-05-18T00:38:31;6.70;99.90
1644;DHT22;46825;51.99869940;8.49421771;2023-05-18T00:39:31;6.60;99.90
1644;DHT22;46825;51.99869940;8.49421771;2023-05-18T00:40:32;6.70;99.90
1644;DHT22;46825;51.99869940;8.49421771;2023-05-18T00:41:32;6.70;99.90
1644;DHT22;46825;51.99869940;8.49421771;2023-05-18T00:42:33;6.60;99.90
1644;DHT22;46825;51.99869940;8.49421771;2023-05-18T00:43:33;6.70;99.90
1644;DHT22;46825;51.99869940;8.49421771;2023-05-18T00:44:34;6.70;99.90
1644;DHT22;46825;51.99869940;8.49421771;2023-05-18T00:45:35;6.70;99.90
1644;DHT22;46825;51.99869940;8.49421771;2023-05-18T00:46:35;6.70;99.90
1644;DHT22;46825;51.99869940;8.49421771;2023-05-18T00:47:36;7.00;99.90
1644;DHT22;46825;51.99869940;8.49421771;2023-05-18T00:48:36;6.70;99.90
1644;DHT22;46825;51.99869940;8.49421771;2023-05-18T00:49:37;6.70;99.90
1644;DHT22;46825;51.99869940;8.49421771;2023-05-18T00:50:38;6.70;99.90
1644;DHT22;46825;51.99869940;8.49421771;2023-05-18T00:51:39;6.90;99.90
1644;DHT22;46825;51.99869940;8.49421771;2023-05-18T00:52:41;6.80;99.90
1644;DHT22;46825;51.99869940;8.49421771;2023-05-18T00:53:42;6.90;99.90
1644;DHT22;46825;51.99869940;8.49421771;2023-05-18T00:54:43;6.80;99.90
1644;DHT22;46825;51.99869940;8.49421771;2023-05-18T00:55:45;6.70;99.90
1644;DHT22;46825;51.99869940;8.49421771;2023-05-18T00:56:46;6.60;99.90
1644;DHT22;46825;51.99869940;8.49421771;2023-05-18T00:57:47;6.60;99.90
1644;DHT22;46825;51.99869940;8.49421771;2023-05-18T00:58:51;6.60;99.90
1644;DHT22;46825;51.99869940;8.49421771;2023-05-18T00:59:52;6.50;99.90
1644;DHT22;46825;51.99869940;8.49421771;2023-05-18T01:00:52;6.50;99.90
1644;DHT22;46825;51.99869940;8.49421771;2023-05-18T01:01:53;6.50;99.90
1644;DHT22;46825;51.99869940;8.49421771;2023-05-18T01:02:54;6.50;99.90
1644;DHT22;46825;51.99869940;8.49421771;2023-05-18T01:03:58;6.50;99.90
1644;DHT22;46825;51.99869940;8.49421771;2023-05-18T01:05:02;6.50;99.90
1644;DHT22;46825;51.99869940;8.49421771;2023-05-18T01:06:04;6.50;99.90
1644;DHT22;46825;51.99869940;8.49421771;2023-05-18T01:07:05;6.40;99.90
1644;DHT22;46825;51.99869940;8.49421771;2023-05-18T01:08:06;6.40;99.90
1644;DHT22;46825;51.99869940;8.49421771;2023-05-18T01:09:09;6.40;99.90
1644;DHT22;46825;51.99869940;8.49421771;2023-05-18T01:10:13;6.40;99.90
1644;DHT22;46825;51.99869940;8.49421771;2023-05-18T01:12:48;6.30;99.90
1644;DHT22;46825;51.99869940;8.49421771;2023-05-18T01:15:11;6.30;99.90
1644;DHT22;46825;51.99869940;8.49421771;2023-05-18T01:16:17;6.30;99.90
1644;DHT22;46825;51.99869940;8.49421771;2023-05-18T01:18:52;6.30;99.90
1644;DHT22;46825;51.99869940;8.49421771;2023-05-18T01:21:53;6.20;99.90
1644;DHT22;46825;51.99869940;8.49421771;2023-05-18T01:23:52;6.20;99.90
1644;DHT22;46825;51.99869940;8.49421771;2023-05-18T01:25:20;6.20;99.90
1644;DHT22;46825;51.99869940;8.49421771;2023-05-18T01:26:28;6.20;99.90
1644;DHT22;46825;51.99869940;8.49421771;2023-05-18T01:27:30;6.20;99.90
1644;DHT22;46825;51.99869940;8.49421771;2023-05-18T01:28:37;6.10;99.90
1644;DHT22;46825;51.99869940;8.49421771;2023-05-18T01:29:38;6.10;99.90
1644;DHT22;46825;51.99869940;8.49421771;2023-05-18T01:30:41;6.10;99.90
1644;DHT22;46825;51.99869940;8.49421771;2023-05-18T01:31:42;6.00;99.90
1644;DHT22;46825;51.99869940;8.49421771;2023-05-18T01:32:45;6.10;99.90
1644;DHT22;46825;51.99869940;8.49421771;2023-05-18T01:33:46;6.00;99.90
1644;DHT22;46825;51.99869940;8.49421771;2023-05-18T01:34:48;6.10;99.90
1644;DHT22;46825;51.99869940;8.49421771;2023-05-18T01:35:49;6.10;99.90
1644;DHT22;46825;51.99869940;8.49421771;2023-05-18T01:36:50;6.00;99.90
1644;DHT22;46825;51.99869940;8.49421771;2023-05-18T01:37:51;6.00;99.90
1644;DHT22;46825;51.99869940;8.49421771;2023-05-18T01:38:51;6.00;99.90
1644;DHT22;46825;51.99869940;8.49421771;2023-05-18T01:39:53;6.00;99.90
1644;DHT22;46825;51.99869940;8.49421771;2023-05-18T01:42:07;5.90;99.90
1644;DHT22;46825;51.99869940;8.49421771;2023-05-18T01:43:10;5.90;99.90
1644;DHT22;46825;51.99869940;8.49421771;2023-05-18T01:45:21;5.80;99.90
1644;DHT22;46825;51.99869940;8.49421771;2023-05-18T01:47:46;5.80;99.90
1644;DHT22;46825;51.99869940;8.49421771;2023-05-18T01:48:55;5.80;99.90
1644;DHT22;46825;51.99869940;8.49421771;2023-05-18T01:51:03;5.80;99.90
1644;DHT22;46825;51.99869940;8.49421771;2023-05-18T01:52:10;5.80;99.90
1644;DHT22;46825;51.99869940;8.49421771;2023-05-18T01:53:22;5.80;99.90
1644;DHT22;46825;51.99869940;8.49421771;2023-05-18T01:54:24;5.80;99.90
1644;DHT22;46825;51.99869940;8.49421771;2023-05-18T01:55:28;5.80;99.90
1644;DHT22;46825;51.99869940;8.49421771;2023-05-18T01:56:31;5.80;99.90
1644;DHT22;46825;51.99869940;8.49421771;2023-05-18T01:57:34;5.80;99.90
1644;DHT22;46825;51.99869940;8.49421771;2023-05-18T01:58:37;5.70;99.90
1644;DHT22;46825;51.99869940;8.49421771;2023-05-18T01:59:37;5.80;99.90
1644;DHT22;46825;51.99869940;8.49421771;2023-05-18T02:00:38;5.70;99.90
1644;DHT22;46825;51.99869940;8.49421771;2023-05-18T02:01:39;5.70;99.90
1644;DHT22;46825;51.99869940;8.49421771;2023-05-18T02:02:40;5.20;99.90
1644;DHT22;46825;51.99869940;8.49421771;2023-05-18T02:03:42;5.80;99.90
1644;DHT22;46825;51.99869940;8.49421771;2023-05-18T02:04:43;5.70;99.90
1644;DHT22;46825;51.99869940;8.49421771;2023-05-18T02:05:43;5.70;99.90
1644;DHT22;46825;51.99869940;8.49421771;2023-05-18T02:06:44;5.70;99.90
1644;DHT22;46825;51.99869940;8.49421771;2023-05-18T02:07:44;5.70;99.90
1644;DHT22;46825;51.99869940;8.49421771;2023-05-18T02:08:46;5.60;99.90
1644;DHT22;46825;51.99869940;8.49421771;2023-05-18T02:09:47;5.60;99.90
1644;DHT22;46825;51.99869940;8.49421771;2023-05-18T02:10:48;5.60;99.90
1644;DHT22;46825;51.99869940;8.49421771;2023-05-18T02:11:49;5.70;99.90
1644;DHT22;46825;51.99869940;8.49421771;2023-05-18T02:12:49;5.60;99.90
1644;DHT22;46825;51.99869940;8.49421771;2023-05-18T02:13:52;5.60;99.90
1644;DHT22;46825;51.99869940;8.49421771;2023-05-18T02:14:52;5.60;99.90
1644;DHT22;46825;51.99869940;8.49421771;2023-05-18T02:15:54;5.60;99.90
1644;DHT22;46825;51.99869940;8.49421771;2023-05-18T02:16:55;5.60;99.90
1644;DHT22;46825;51.99869940;8.49421771;2023-05-18T02:17:56;5.70;99.90
1644;DHT22;46825;51.99869940;8.49421771;2023-05-18T02:18:57;5.60;99.90
1644;DHT22;46825;51.99869940;8.49421771;2023-05-18T02:19:59;5.60;99.90
1644;DHT22;46825;51.99869940;8.49421771;2023-05-18T02:21:00;5.60;99.90
1644;DHT22;46825;51.99869940;8.49421771;2023-05-18T02:22:00;5.60;99.90
1644;DHT22;46825;51.99869940;8.49421771;2023-05-18T02:23:01;5.60;99.90
1644;DHT22;46825;51.99869940;8.49421771;2023-05-18T02:24:02;5.50;99.90
1644;DHT22;46825;51.99869940;8.49421771;2023-05-18T02:25:03;5.50;99.90
1644;DHT22;46825;51.99869940;8.49421771;2023-05-18T02:26:06;5.50;99.90
1644;DHT22;46825;51.99869940;8.49421771;2023-05-18T02:27:07;5.60;99.90
1644;DHT22;46825;51.99869940;8.49421771;2023-05-18T02:28:08;5.50;99.90
1644;DHT22;46825;51.99869940;8.49421771;2023-05-18T02:29:08;5.50;99.90
1644;DHT22;46825;51.99869940;8.49421771;2023-05-18T02:30:11;5.50;99.90
1644;DHT22;46825;51.99869940;8.49421771;2023-05-18T02:31:12;5.50;99.90
1644;DHT22;46825;51.99869940;8.49421771;2023-05-18T02:32:12;5.60;99.90
1644;DHT22;46825;51.99869940;8.49421771;2023-05-18T02:33:13;5.50;99.90
1644;DHT22;46825;51.99869940;8.49421771;2023-05-18T02:34:14;5.50;99.90
1644;DHT22;46825;51.99869940;8.49421771;2023-05-18T02:35:16;5.50;99.90
1644;DHT22;46825;51.99869940;8.49421771;2023-05-18T02:36:19;5.50;99.90
1644;DHT22;46825;51.99869940;8.49421771;2023-05-18T02:37:21;5.50;99.90
1644;DHT22;46825;51.99869940;8.49421771;2023-05-18T02:38:22;5.50;99.90
1644;DHT22;46825;51.99869940;8.49421771;2023-05-18T02:39:22;5.40;99.90
1644;DHT22;46825;51.99869940;8.49421771;2023-05-18T02:40:23;5.50;99.90
1644;DHT22;46825;51.99869940;8.49421771;2023-05-18T02:41:23;5.40;99.90
1644;DHT22;46825;51.99869940;8.49421771;2023-05-18T02:42:25;5.40;99.90
1644;DHT22;46825;51.99869940;8.49421771;2023-05-18T02:43:25;5.40;99.90
1644;DHT22;46825;51.99869940;8.49421771;2023-05-18T02:44:26;5.40;99.90
1644;DHT22;46825;51.99869940;8.49421771;2023-05-18T02:45:26;5.50;99.90
1644;DHT22;46825;51.99869940;8.49421771;2023-05-18T02:46:27;5.40;99.90
1644;DHT22;46825;51.99869940;8.49421771;2023-05-18T02:47:28;5.40;99.90
1644;DHT22;46825;51.99869940;8.49421771;2023-05-18T02:48:28;5.40;99.90
1644;DHT22;46825;51.99869940;8.49421771;2023-05-18T02:49:29;5.40;99.90
1644;DHT22;46825;51.99869940;8.49421771;2023-05-18T02:50:30;5.40;99.90
1644;DHT22;46825;51.99869940;8.49421771;2023-05-18T02:51:30;5.40;99.90
1644;DHT22;46825;51.99869940;8.49421771;2023-05-18T02:52:31;5.40;99.90
1644;DHT22;46825;51.99869940;8.49421771;2023-05-18T02:53:33;5.40;99.90
1644;DHT22;46825;51.99869940;8.49421771;2023-05-18T02:54:33;5.40;99.90
1644;DHT22;46825;51.99869940;8.49421771;2023-05-18T02:55:34;5.40;99.90
1644;DHT22;46825;51.99869940;8.49421771;2023-05-18T02:56:34;5.40;99.90
1644;DHT22;46825;51.99869940;8.49421771;2023-05-18T02:57:35;5.40;99.90
1644;DHT22;46825;51.99869940;8.49421771;2023-05-18T02:58:36;5.40;99.90
1644;DHT22;46825;51.99869940;8.49421771;2023-05-18T02:59:37;5.30;99.90
1644;DHT22;46825;51.99869940;8.49421771;2023-05-18T03:00:38;5.30;99.90
1644;DHT22;46825;51.99869940;8.49421771;2023-05-18T03:01:39;5.30;99.90
1644;DHT22;46825;51.99869940;8.49421771;2023-05-18T03:02:40;5.30;99.90
1644;DHT22;46825;51.99869940;8.49421771;2023-05-18T03:03:40;5.30;99.90
1644;DHT22;46825;51.99869940;8.49421771;2023-05-18T03:04:41;5.30;99.90
1644;DHT22;46825;51.99869940;8.49421771;2023-05-18T03:05:42;6.60;99.90
1644;DHT22;46825;51.99869940;8.49421771;2023-05-18T03:06:42;5.30;99.90
1644;DHT22;46825;51.99869940;8.49421771;2023-05-18T03:07:45;5.20;99.90
1644;DHT22;46825;51.99869940;8.49421771;2023-05-18T03:08:50;5.20;99.90
1644;DHT22;46825;51.99869940;8.49421771;2023-05-18T03:09:50;5.20;99.90
1644;DHT22;46825;51.99869940;8.49421771;2023-05-18T03:10:51;5.30;99.90
1644;DHT22;46825;51.99869940;8.49421771;2023-05-18T03:11:52;5.30;99.90
1644;DHT22;46825;51.99869940;8.49421771;2023-05-18T03:12:52;5.20;99.90
1644;DHT22;46825;51.99869940;8.49421771;2023-05-18T03:13:53;5.20;99.90
1644;DHT22;46825;51.99869940;8.49421771;2023-05-18T03:14:54;5.40;99.90
1644;DHT22;46825;51.99869940;8.49421771;2023-05-18T03:15:54;5.20;99.90
1644;DHT22;46825;51.99869940;8.49421771;2023-05-18T03:16:55;5.10;99.90
1644;DHT22;46825;51.99869940;8.49421771;2023-05-18T03:17:56;5.10;99.90
1644;DHT22;46825;51.99869940;8.49421771;2023-05-18T03:19:00;5.10;99.90
1644;DHT22;46825;51.99869940;8.49421771;2023-05-18T03:20:02;5.10;99.90
1644;DHT22;46825;51.99869940;8.49421771;2023-05-18T03:21:04;5.10;99.90
1644;DHT22;46825;51.99869940;8.49421771;2023-05-18T03:22:05;5.10;99.90
1644;DHT22;46825;51.99869940;8.49421771;2023-05-18T03:23:05;5.10;99.90
1644;DHT22;46825;51.99869940;8.49421771;2023-05-18T03:24:06;5.10;99.90
1644;DHT22;46825;51.99869940;8.49421771;2023-05-18T03:25:07;5.20;99.90
1644;DHT22;46825;51.99869940;8.49421771;2023-05-18T03:26:07;5.20;99.90
1644;DHT22;46825;51.99869940;8.49421771;2023-05-18T03:27:10;5.20;99.90
1644;DHT22;46825;51.99869940;8.49421771;2023-05-18T03:28:12;5.40;99.90
1644;DHT22;46825;51.99869940;8.49421771;2023-05-18T03:29:12;5.30;99.90
1644;DHT22;46825;51.99869940;8.49421771;2023-05-18T03:30:13;5.20;99.90
1644;DHT22;46825;51.99869940;8.49421771;2023-05-18T03:31:13;5.30;99.90
1644;DHT22;46825;51.99869940;8.49421771;2023-05-18T03:32:14;5.40;99.90
1644;DHT22;46825;51.99869940;8.49421771;2023-05-18T03:33:15;5.30;99.90
1644;DHT22;46825;51.99869940;8.49421771;2023-05-18T03:34:15;5.20;99.90
1644;DHT22;46825;51.99869940;8.49421771;2023-05-18T03:35:16;5.20;99.90
1644;DHT22;46825;51.99869940;8.49421771;2023-05-18T03:36:17;5.20;99.90
1644;DHT22;46825;51.99869940;8.49421771;2023-05-18T03:37:17;5.20;99.90
1644;DHT22;46825;51.99869940;8.49421771;2023-05-18T03:38:18;5.20;99.90
1644;DHT22;46825;51.99869940;8.49421771;2023-05-18T03:39:19;5.20;99.90
1644;DHT22;46825;51.99869940;8.49421771;2023-05-18T03:40:20;5.20;99.90
1644;DHT22;46825;51.99869940;8.49421771;2023-05-18T03:41:21;5.20;99.90
1644;DHT22;46825;51.99869940;8.49421771;2023-05-18T03:42:21;5.20;99.90
1644;DHT22;46825;51.99869940;8.49421771;2023-05-18T03:43:22;5.20;99.90
1644;DHT22;46825;51.99869940;8.49421771;2023-05-18T03:44:25;5.20;99.90
1644;DHT22;46825;51.99869940;8.49421771;2023-05-18T03:45:26;5.20;99.90
1644;DHT22;46825;51.99869940;8.49421771;2023-05-18T03:46:26;5.20;99.90
1644;DHT22;46825;51.99869940;8.49421771;2023-05-18T03:47:27;5.20;99.90
1644;DHT22;46825;51.99869940;8.49421771;2023-05-18T03:48:29;5.20;99.90
1644;DHT22;46825;51.99869940;8.49421771;2023-05-18T03:49:32;5.20;99.90
1644;DHT22;46825;51.99869940;8.49421771;2023-05-18T03:50:32;5.30;99.90
1644;DHT22;46825;51.99869940;8.49421771;2023-05-18T03:51:33;5.30;99.90
1644;DHT22;46825;51.99869940;8.49421771;2023-05-18T03:52:34;5.30;99.90
1644;DHT22;46825;51.99869940;8.49421771;2023-05-18T03:53:36;5.30;99.90
1644;DHT22;46825;51.99869940;8.49421771;2023-05-18T03:54:36;5.30;99.90
1644;DHT22;46825;51.99869940;8.49421771;2023-05-18T03:55:37;5.30;99.90
1644;DHT22;46825;51.99869940;8.49421771;2023-05-18T03:56:38;5.30;99.90
1644;DHT22;46825;51.99869940;8.49421771;2023-05-18T03:57:38;5.30;99.90
1644;DHT22;46825;51.99869940;8.49421771;2023-05-18T03:58:39;5.40;99.90
1644;DHT22;46825;51.99869940;8.49421771;2023-05-18T03:59:42;5.40;99.90
1644;DHT22;46825;51.99869940;8.49421771;2023-05-18T04:00:43;5.30;99.90
1644;DHT22;46825;51.99869940;8.49421771;2023-05-18T04:01:43;5.30;99.90
1644;DHT22;46825;51.99869940;8.49421771;2023-05-18T04:02:44;5.20;99.90
1644;DHT22;46825;51.99869940;8.49421771;2023-05-18T04:03:46;5.30;99.90
1644;DHT22;46825;51.99869940;8.49421771;2023-05-18T04:04:46;5.30;99.90
1644;DHT22;46825;51.99869940;8.49421771;2023-05-18T04:05:47;5.30;99.90
1644;DHT22;46825;51.99869940;8.49421771;2023-05-18T04:06:49;5.30;99.90
1644;DHT22;46825;51.99869940;8.49421771;2023-05-18T04:07:52;5.30;99.90
1644;DHT22;46825;51.99869940;8.49421771;2023-05-18T04:08:56;5.30;99.90
1644;DHT22;46825;51.99869940;8.49421771;2023-05-18T04:10:01;5.30;99.90
1644;DHT22;46825;51.99869940;8.49421771;2023-05-18T04:11:02;5.30;99.90
1644;DHT22;46825;51.99869940;8.49421771;2023-05-18T04:12:04;5.30;99.90
1644;DHT22;46825;51.99869940;8.49421771;2023-05-18T04:13:05;5.30;99.90
1644;DHT22;46825;51.99869940;8.49421771;2023-05-18T04:14:06;5.30;99.90
1644;DHT22;46825;51.99869940;8.49421771;2023-05-18T04:15:08;5.30;99.90
1644;DHT22;46825;51.99869940;8.49421771;2023-05-18T04:16:09;5.30;99.90
1644;DHT22;46825;51.99869940;8.49421771;2023-05-18T04:17:12;5.30;99.90
1644;DHT22;46825;51.99869940;8.49421771;2023-05-18T04:18:13;5.40;99.90
1644;DHT22;46825;51.99869940;8.49421771;2023-05-18T04:19:13;5.30;99.90
1644;DHT22;46825;51.99869940;8.49421771;2023-05-18T04:20:15;5.30;99.90
1644;DHT22;46825;51.99869940;8.49421771;2023-05-18T04:21:15;5.30;99.90
1644;DHT22;46825;51.99869940;8.49421771;2023-05-18T04:22:16;5.50;99.90
1644;DHT22;46825;51.99869940;8.49421771;2023-05-18T04:23:17;5.30;99.90
1644;DHT22;46825;51.99869940;8.49421771;2023-05-18T04:24:19;5.30;99.90
1644;DHT22;46825;51.99869940;8.49421771;2023-05-18T04:25:20;5.30;99.90
1644;DHT22;46825;51.99869940;8.49421771;2023-05-18T04:26:21;5.40;99.90
1644;DHT22;46825;51.99869940;8.49421771;2023-05-18T04:27:21;5.40;99.90
1644;DHT22;46825;51.99869940;8.49421771;2023-05-18T04:28:22;5.40;99.90
1644;DHT22;46825;51.99869940;8.49421771;2023-05-18T04:29:22;5.50;99.90
1644;DHT22;46825;51.99869940;8.49421771;2023-05-18T04:30:25;5.50;99.90
1644;DHT22;46825;51.99869940;8.49421771;2023-05-18T04:31:26;3.70;99.90
1644;DHT22;46825;51.99869940;8.49421771;2023-05-18T04:32:27;5.40;99.90
1644;DHT22;46825;51.99869940;8.49421771;2023-05-18T04:33:31;5.50;99.90
1644;DHT22;46825;51.99869940;8.49421771;2023-05-18T04:34:32;5.50;99.90
1644;DHT22;46825;51.99869940;8.49421771;2023-05-18T04:35:34;5.50;99.90
1644;DHT22;46825;51.99869940;8.49421771;2023-05-18T04:36:35;5.60;99.90
1644;DHT22;46825;51.99869940;8.49421771;2023-05-18T04:37:39;5.60;99.90
1644;DHT22;46825;51.99869940;8.49421771;2023-05-18T04:38:40;5.60;99.90
1644;DHT22;46825;51.99869940;8.49421771;2023-05-18T04:39:41;5.90;99.90
1644;DHT22;46825;51.99869940;8.49421771;2023-05-18T04:40:42;5.70;99.90
1644;DHT22;46825;51.99869940;8.49421771;2023-05-18T04:41:43;5.70;99.90
1644;DHT22;46825;51.99869940;8.49421771;2023-05-18T04:42:45;5.70;99.90
1644;DHT22;46825;51.99869940;8.49421771;2023-05-18T04:43:46;5.70;99.90
1644;DHT22;46825;51.99869940;8.49421771;2023-05-18T04:44:47;5.70;99.90
1644;DHT22;46825;51.99869940;8.49421771;2023-05-18T04:45:51;5.70;99.90
1644;DHT22;46825;51.99869940;8.49421771;2023-05-18T04:46:52;5.80;99.90
1644;DHT22;46825;51.99869940;8.49421771;2023-05-18T04:47:53;5.80;99.90
1644;DHT22;46825;51.99869940;8.49421771;2023-05-18T04:48:54;5.90;99.90
1644;DHT22;46825;51.99869940;8.49421771;2023-05-18T04:49:57;5.80;99.90
1644;DHT22;46825;51.99869940;8.49421771;2023-05-18T04:50:57;5.90;99.90
1644;DHT22;46825;51.99869940;8.49421771;2023-05-18T04:51:58;5.90;99.90
1644;DHT22;46825;51.99869940;8.49421771;2023-05-18T04:52:59;5.90;99.90
1644;DHT22;46825;51.99869940;8.49421771;2023-05-18T04:54:01;5.90;99.90
1644;DHT22;46825;51.99869940;8.49421771;2023-05-18T04:55:02;5.90;99.90
1644;DHT22;46825;51.99869940;8.49421771;2023-05-18T04:56:03;6.00;99.90
1644;DHT22;46825;51.99869940;8.49421771;2023-05-18T04:57:04;6.00;99.90
1644;DHT22;46825;51.99869940;8.49421771;2023-05-18T04:58:05;6.00;99.90
1644;DHT22;46825;51.99869940;8.49421771;2023-05-18T04:59:07;6.00;99.90
1644;DHT22;46825;51.99869940;8.49421771;2023-05-18T05:00:08;6.00;99.90
1644;DHT22;46825;51.99869940;8.49421771;2023-05-18T05:01:09;6.10;99.90
1644;DHT22;46825;51.99869940;8.49421771;2023-05-18T05:02:10;6.10;99.90
1644;DHT22;46825;51.99869940;8.49421771;2023-05-18T05:03:11;6.20;99.90
1644;DHT22;46825;51.99869940;8.49421771;2023-05-18T05:04:11;6.20;99.90
1644;DHT22;46825;51.99869940;8.49421771;2023-05-18T05:05:12;6.20;99.90
1644;DHT22;46825;51.99869940;8.49421771;2023-05-18T05:06:13;6.20;99.90
1644;DHT22;46825;51.99869940;8.49421771;2023-05-18T05:07:15;5.90;99.90
1644;DHT22;46825;51.99869940;8.49421771;2023-05-18T05:08:15;6.20;99.90
1644;DHT22;46825;51.99869940;8.49421771;2023-05-18T05:09:16;6.20;99.90
1644;DHT22;46825;51.99869940;8.49421771;2023-05-18T05:10:18;6.20;99.90
1644;DHT22;46825;51.99869940;8.49421771;2023-05-18T05:11:19;6.20;99.90
1644;DHT22;46825;51.99869940;8.49421771;2023-05-18T05:12:19;6.20;99.90
1644;DHT22;46825;51.99869940;8.49421771;2023-05-18T05:13:20;6.30;99.90
1644;DHT22;46825;51.99869940;8.49421771;2023-05-18T05:14:21;6.30;99.90
1644;DHT22;46825;51.99869940;8.49421771;2023-05-18T05:15:21;6.30;99.90
1644;DHT22;46825;51.99869940;8.49421771;2023-05-18T05:16:22;7.90;99.90
1644;DHT22;46825;51.99869940;8.49421771;2023-05-18T05:17:23;6.30;99.90
1644;DHT22;46825;51.99869940;8.49421771;2023-05-18T05:18:24;6.30;99.90
1644;DHT22;46825;51.99869940;8.49421771;2023-05-18T05:19:24;6.50;99.90
1644;DHT22;46825;51.99869940;8.49421771;2023-05-18T05:20:25;6.30;99.90
1644;DHT22;46825;51.99869940;8.49421771;2023-05-18T05:21:26;6.40;99.90
1644;DHT22;46825;51.99869940;8.49421771;2023-05-18T05:22:26;6.40;99.90
1644;DHT22;46825;51.99869940;8.49421771;2023-05-18T05:23:27;6.50;99.90
1644;DHT22;46825;51.99869940;8.49421771;2023-05-18T05:24:28;6.70;99.90
1644;DHT22;46825;51.99869940;8.49421771;2023-05-18T05:25:29;6.50;99.90
1644;DHT22;46825;51.99869940;8.49421771;2023-05-18T05:26:29;6.60;99.90
1644;DHT22;46825;51.99869940;8.49421771;2023-05-18T05:27:30;6.60;99.90
1644;DHT22;46825;51.99869940;8.49421771;2023-05-18T05:28:31;6.60;99.90
1644;DHT22;46825;51.99869940;8.49421771;2023-05-18T05:29:31;6.60;99.90
1644;DHT22;46825;51.99869940;8.49421771;2023-05-18T05:30:32;6.60;99.90
1644;DHT22;46825;51.99869940;8.49421771;2023-05-18T05:31:32;6.60;99.90
1644;DHT22;46825;51.99869940;8.49421771;2023-05-18T05:32:33;6.60;99.90
1644;DHT22;46825;51.99869940;8.49421771;2023-05-18T05:33:35;6.60;99.90
1644;DHT22;46825;51.99869940;8.49421771;2023-05-18T05:34:36;6.60;99.90
1644;DHT22;46825;51.99869940;8.49421771;2023-05-18T05:35:36;6.60;99.90
1644;DHT22;46825;51.99869940;8.49421771;2023-05-18T05:36:37;6.80;99.90
1644;DHT22;46825;51.99869940;8.49421771;2023-05-18T05:37:38;6.70;99.90
1644;DHT22;46825;51.99869940;8.49421771;2023-05-18T05:38:39;6.70;99.90
1644;DHT22;46825;51.99869940;8.49421771;2023-05-18T05:39:39;6.70;99.90
1644;DHT22;46825;51.99869940;8.49421771;2023-05-18T05:40:40;5.80;99.90
1644;DHT22;46825;51.99869940;8.49421771;2023-05-18T05:41:41;6.80;99.90
1644;DHT22;46825;51.99869940;8.49421771;2023-05-18T05:42:41;6.80;99.90
1644;DHT22;46825;51.99869940;8.49421771;2023-05-18T05:43:43;6.80;99.90
1644;DHT22;46825;51.99869940;8.49421771;2023-05-18T05:44:44;6.80;99.90
1644;DHT22;46825;51.99869940;8.49421771;2023-05-18T05:45:44;6.90;99.90
1644;DHT22;46825;51.99869940;8.49421771;2023-05-18T05:46:45;7.00;99.90
1644;DHT22;46825;51.99869940;8.49421771;2023-05-18T05:47:46;7.10;99.90
1644;DHT22;46825;51.99869940;8.49421771;2023-05-18T05:48:48;7.00;99.90
1644;DHT22;46825;51.99869940;8.49421771;2023-05-18T05:49:49;7.00;99.90
1644;DHT22;46825;51.99869940;8.49421771;2023-05-18T05:50:49;7.00;99.90
1644;DHT22;46825;51.99869940;8.49421771;2023-05-18T05:51:51;7.10;99.90
1644;DHT22;46825;51.99869940;8.49421771;2023-05-18T05:52:52;7.00;99.90
1644;DHT22;46825;51.99869940;8.49421771;2023-05-18T05:53:53;7.10;99.90
1644;DHT22;46825;51.99869940;8.49421771;2023-05-18T05:54:54;7.00;99.90
1644;DHT22;46825;51.99869940;8.49421771;2023-05-18T05:55:54;7.00;99.90
1644;DHT22;46825;51.99869940;8.49421771;2023-05-18T05:56:56;7.00;99.90